イスタンブル の空港の天気 - METARとTAF

アタテュルク国際空港(イスタンブル) ( LTBA / IST ) - トルコ イスタンブル
飛行場実況気象(Metar)
観測時間11/20 06:20 EET (11/20 03:20 UTC)
風向・風速北 4m/s
視程10km以上
天気現象弱いしゅう雨
全天の4割程度の雲 雲底高度 300m
全天の8割程度の雲 雲底高度 910m
気温11℃
湿度94%
気圧1008hPa
METARLTBA 200320Z 35007KT 9999 -SHRA SCT010 BKN030 11/10 Q1008 NOSIG RMK RWY17L 01005KT RWY05 34006KT 310V020 RWY23 36006KT
過去の天気等 Google飛行場航空写真 Wunderground天気予報

過去48時間のMETAR

飛行場予報(TAF)
発表時間: 11/20 01:40 EET (11/19 22:40 UTC)
予報対象時間: 20日3時 EET ~ 21日9時 EET
風向・風速北北東 7m/s
視程6,000m
天気現象弱いしゅう雨
全天の4割程度の雲 雲底高度 370m
全天の8割程度の雲 雲底高度 910m
20日9時 EET ~ 20日13時 EET に 確率 40% で一時的に
風向・風速北 8m/s 瞬間風速 13m/s
視程4,000m
天気現象雷雨
全天の4割程度の積乱雲 雲底高度 490m
全天の8割程度の雲 雲底高度 760m
20日13時 EET ~ 20日16時 EET に徐々に
風向・風速北 9m/s 瞬間風速 14m/s
TAF LTBA 192240Z 2000/2106 02013KT 6000 -SHRA SCT012 BKN030
PROB40 TEMPO 2006/2010 01015G25KT 4000 TSRA SCT016CB BKN025
BECMG 2010/2013 35017G28KT